sensor_id;sensor_type;location;lat;lon;timestamp;P1;durP1;ratioP1;P2;durP2;ratioP2
20830;SDS011;10576;53.556;9.868;2023-02-01T00:02:16;21.33;;;4.20;;
20830;SDS011;10576;53.556;9.868;2023-02-01T00:04:42;22.30;;;4.63;;
20830;SDS011;10576;53.556;9.868;2023-02-01T00:07:08;17.40;;;3.80;;
20830;SDS011;10576;53.556;9.868;2023-02-01T00:09:34;23.83;;;4.47;;
20830;SDS011;10576;53.556;9.868;2023-02-01T00:12:00;23.02;;;4.05;;
20830;SDS011;10576;53.556;9.868;2023-02-01T00:14:27;19.02;;;4.22;;
20830;SDS011;10576;53.556;9.868;2023-02-01T00:16:53;23.42;;;4.63;;
20830;SDS011;10576;53.556;9.868;2023-02-01T00:19:19;23.08;;;4.30;;
20830;SDS011;10576;53.556;9.868;2023-02-01T00:21:45;25.65;;;4.97;;
20830;SDS011;10576;53.556;9.868;2023-02-01T00:24:11;20.40;;;4.25;;
20830;SDS011;10576;53.556;9.868;2023-02-01T00:29:12;18.30;;;4.43;;
20830;SDS011;10576;53.556;9.868;2023-02-01T00:31:39;19.30;;;4.28;;
20830;SDS011;10576;53.556;9.868;2023-02-01T00:34:06;18.60;;;4.35;;
20830;SDS011;10576;53.556;9.868;2023-02-01T00:36:34;21.92;;;4.57;;
20830;SDS011;10576;53.556;9.868;2023-02-01T00:39:00;28.05;;;4.88;;
20830;SDS011;10576;53.556;9.868;2023-02-01T00:41:25;25.42;;;4.90;;
20830;SDS011;10576;53.556;9.868;2023-02-01T00:43:52;25.55;;;5.35;;
20830;SDS011;10576;53.556;9.868;2023-02-01T00:46:18;18.95;;;4.57;;
20830;SDS011;10576;53.556;9.868;2023-02-01T00:48:44;23.20;;;4.55;;
20830;SDS011;10576;53.556;9.868;2023-02-01T00:51:11;25.73;;;5.25;;
20830;SDS011;10576;53.556;9.868;2023-02-01T00:53:39;27.07;;;5.20;;
20830;SDS011;10576;53.556;9.868;2023-02-01T00:56:06;26.73;;;5.13;;
20830;SDS011;10576;53.556;9.868;2023-02-01T00:58:32;27.55;;;4.85;;
20830;SDS011;10576;53.556;9.868;2023-02-01T01:01:06;27.65;;;5.55;;
20830;SDS011;10576;53.556;9.868;2023-02-01T01:03:33;22.55;;;4.57;;
20830;SDS011;10576;53.556;9.868;2023-02-01T01:06:02;20.52;;;4.78;;
20830;SDS011;10576;53.556;9.868;2023-02-01T01:08:30;31.45;;;5.28;;
20830;SDS011;10576;53.556;9.868;2023-02-01T01:10:55;22.13;;;4.80;;
20830;SDS011;10576;53.556;9.868;2023-02-01T01:13:22;25.25;;;5.05;;
20830;SDS011;10576;53.556;9.868;2023-02-01T01:15:47;21.65;;;4.43;;
20830;SDS011;10576;53.556;9.868;2023-02-01T01:18:13;26.10;;;5.18;;
20830;SDS011;10576;53.556;9.868;2023-02-01T01:20:39;27.27;;;4.93;;
20830;SDS011;10576;53.556;9.868;2023-02-01T01:23:06;22.58;;;4.97;;
20830;SDS011;10576;53.556;9.868;2023-02-01T01:25:37;29.27;;;5.80;;
20830;SDS011;10576;53.556;9.868;2023-02-01T01:28:03;29.52;;;5.10;;
20830;SDS011;10576;53.556;9.868;2023-02-01T01:30:30;25.13;;;4.80;;
20830;SDS011;10576;53.556;9.868;2023-02-01T01:32:55;23.48;;;4.63;;
20830;SDS011;10576;53.556;9.868;2023-02-01T01:35:21;24.58;;;5.07;;
20830;SDS011;10576;53.556;9.868;2023-02-01T01:37:47;29.75;;;5.50;;
20830;SDS011;10576;53.556;9.868;2023-02-01T01:40:13;28.83;;;5.63;;
20830;SDS011;10576;53.556;9.868;2023-02-01T01:42:40;25.55;;;5.20;;
20830;SDS011;10576;53.556;9.868;2023-02-01T01:45:21;26.20;;;5.27;;
20830;SDS011;10576;53.556;9.868;2023-02-01T01:47:48;24.60;;;5.53;;
20830;SDS011;10576;53.556;9.868;2023-02-01T01:50:46;28.00;;;4.93;;
20830;SDS011;10576;53.556;9.868;2023-02-01T01:53:25;28.27;;;6.10;;
20830;SDS011;10576;53.556;9.868;2023-02-01T01:55:52;30.47;;;5.90;;
20830;SDS011;10576;53.556;9.868;2023-02-01T01:58:21;29.42;;;5.35;;
20830;SDS011;10576;53.556;9.868;2023-02-01T02:00:48;23.02;;;4.88;;
20830;SDS011;10576;53.556;9.868;2023-02-01T02:03:19;28.42;;;5.10;;
20830;SDS011;10576;53.556;9.868;2023-02-01T02:05:46;26.75;;;5.72;;
20830;SDS011;10576;53.556;9.868;2023-02-01T02:08:15;27.70;;;5.32;;
20830;SDS011;10576;53.556;9.868;2023-02-01T02:10:42;30.05;;;5.32;;
20830;SDS011;10576;53.556;9.868;2023-02-01T02:13:33;26.10;;;5.65;;
20830;SDS011;10576;53.556;9.868;2023-02-01T02:24:24;26.13;;;4.90;;
20830;SDS011;10576;53.556;9.868;2023-02-01T02:27:04;30.27;;;5.43;;
20830;SDS011;10576;53.556;9.868;2023-02-01T02:30:00;27.58;;;5.55;;
20830;SDS011;10576;53.556;9.868;2023-02-01T02:35:16;29.02;;;5.20;;
20830;SDS011;10576;53.556;9.868;2023-02-01T02:40:53;26.17;;;5.90;;
20830;SDS011;10576;53.556;9.868;2023-02-01T02:43:24;26.38;;;4.95;;
20830;SDS011;10576;53.556;9.868;2023-02-01T02:46:25;31.63;;;5.28;;
20830;SDS011;10576;53.556;9.868;2023-02-01T02:49:34;27.90;;;5.00;;
20830;SDS011;10576;53.556;9.868;2023-02-01T02:51:59;28.90;;;5.45;;
20830;SDS011;10576;53.556;9.868;2023-02-01T02:54:49;26.10;;;4.78;;
20830;SDS011;10576;53.556;9.868;2023-02-01T02:57:24;25.70;;;5.13;;
20830;SDS011;10576;53.556;9.868;2023-02-01T03:00:11;33.77;;;5.80;;
20830;SDS011;10576;53.556;9.868;2023-02-01T03:02:58;24.40;;;5.65;;
20830;SDS011;10576;53.556;9.868;2023-02-01T03:05:44;26.08;;;5.40;;
20830;SDS011;10576;53.556;9.868;2023-02-01T03:10:42;26.45;;;5.30;;
20830;SDS011;10576;53.556;9.868;2023-02-01T03:16:12;24.85;;;5.25;;
20830;SDS011;10576;53.556;9.868;2023-02-01T03:19:16;22.55;;;4.63;;
20830;SDS011;10576;53.556;9.868;2023-02-01T03:27:12;18.67;;;3.97;;
20830;SDS011;10576;53.556;9.868;2023-02-01T03:29:50;18.10;;;4.20;;
20830;SDS011;10576;53.556;9.868;2023-02-01T03:32:36;17.80;;;3.78;;
20830;SDS011;10576;53.556;9.868;2023-02-01T03:35:25;15.75;;;3.28;;
20830;SDS011;10576;53.556;9.868;2023-02-01T03:38:03;13.30;;;3.30;;
20830;SDS011;10576;53.556;9.868;2023-02-01T03:40:37;14.48;;;3.10;;
20830;SDS011;10576;53.556;9.868;2023-02-01T03:43:06;16.73;;;2.90;;
20830;SDS011;10576;53.556;9.868;2023-02-01T03:45:38;8.40;;;2.63;;
20830;SDS011;10576;53.556;9.868;2023-02-01T03:48:09;12.35;;;3.20;;
20830;SDS011;10576;53.556;9.868;2023-02-01T03:50:36;12.85;;;2.95;;
20830;SDS011;10576;53.556;9.868;2023-02-01T03:53:09;14.80;;;2.95;;
20830;SDS011;10576;53.556;9.868;2023-02-01T03:55:39;14.07;;;3.40;;
20830;SDS011;10576;53.556;9.868;2023-02-01T03:58:14;13.05;;;3.35;;
20830;SDS011;10576;53.556;9.868;2023-02-01T04:00:43;13.40;;;3.40;;
20830;SDS011;10576;53.556;9.868;2023-02-01T04:03:10;22.67;;;4.00;;
20830;SDS011;10576;53.556;9.868;2023-02-01T04:05:36;17.70;;;3.55;;
20830;SDS011;10576;53.556;9.868;2023-02-01T04:08:02;19.13;;;3.90;;
20830;SDS011;10576;53.556;9.868;2023-02-01T04:10:30;18.63;;;3.90;;
20830;SDS011;10576;53.556;9.868;2023-02-01T04:12:55;15.00;;;3.53;;
20830;SDS011;10576;53.556;9.868;2023-02-01T04:15:21;20.87;;;3.70;;
20830;SDS011;10576;53.556;9.868;2023-02-01T04:17:47;16.20;;;3.23;;
20830;SDS011;10576;53.556;9.868;2023-02-01T04:20:12;11.68;;;3.20;;
20830;SDS011;10576;53.556;9.868;2023-02-01T04:22:38;13.13;;;3.30;;
20830;SDS011;10576;53.556;9.868;2023-02-01T04:25:04;16.35;;;3.47;;
20830;SDS011;10576;53.556;9.868;2023-02-01T04:27:30;12.82;;;3.28;;
20830;SDS011;10576;53.556;9.868;2023-02-01T04:29:56;14.27;;;3.13;;
20830;SDS011;10576;53.556;9.868;2023-02-01T04:32:22;12.80;;;3.22;;
20830;SDS011;10576;53.556;9.868;2023-02-01T04:34:48;13.05;;;3.28;;
20830;SDS011;10576;53.556;9.868;2023-02-01T04:37:14;13.73;;;3.40;;
20830;SDS011;10576;53.556;9.868;2023-02-01T04:39:39;14.30;;;2.90;;
20830;SDS011;10576;53.556;9.868;2023-02-01T04:42:05;10.10;;;2.67;;
20830;SDS011;10576;53.556;9.868;2023-02-01T04:44:31;12.23;;;2.83;;
20830;SDS011;10576;53.556;9.868;2023-02-01T04:46:57;14.07;;;2.70;;
20830;SDS011;10576;53.556;9.868;2023-02-01T04:49:23;9.70;;;2.58;;
20830;SDS011;10576;53.556;9.868;2023-02-01T04:51:51;13.18;;;2.70;;
20830;SDS011;10576;53.556;9.868;2023-02-01T04:54:17;8.27;;;2.50;;
20830;SDS011;10576;53.556;9.868;2023-02-01T04:56:43;7.43;;;2.10;;
20830;SDS011;10576;53.556;9.868;2023-02-01T04:59:10;8.43;;;2.33;;
20830;SDS011;10576;53.556;9.868;2023-02-01T05:01:36;6.97;;;2.13;;
20830;SDS011;10576;53.556;9.868;2023-02-01T05:04:02;5.87;;;1.60;;
20830;SDS011;10576;53.556;9.868;2023-02-01T05:06:28;5.60;;;1.42;;
20830;SDS011;10576;53.556;9.868;2023-02-01T05:08:54;5.67;;;1.53;;
20830;SDS011;10576;53.556;9.868;2023-02-01T05:11:20;3.28;;;1.30;;
20830;SDS011;10576;53.556;9.868;2023-02-01T05:14:04;4.30;;;1.10;;
20830;SDS011;10576;53.556;9.868;2023-02-01T05:16:30;3.42;;;1.02;;
20830;SDS011;10576;53.556;9.868;2023-02-01T05:18:56;2.40;;;0.85;;
20830;SDS011;10576;53.556;9.868;2023-02-01T05:21:22;2.95;;;0.98;;
20830;SDS011;10576;53.556;9.868;2023-02-01T05:23:48;3.10;;;0.80;;
20830;SDS011;10576;53.556;9.868;2023-02-01T05:26:33;1.07;;;0.77;;
20830;SDS011;10576;53.556;9.868;2023-02-01T05:28:58;1.30;;;0.55;;
20830;SDS011;10576;53.556;9.868;2023-02-01T05:31:24;1.38;;;0.50;;
20830;SDS011;10576;53.556;9.868;2023-02-01T05:33:51;1.52;;;0.60;;
20830;SDS011;10576;53.556;9.868;2023-02-01T05:36:17;2.10;;;0.68;;
20830;SDS011;10576;53.556;9.868;2023-02-01T05:38:43;1.48;;;0.50;;
20830;SDS011;10576;53.556;9.868;2023-02-01T05:41:08;1.30;;;0.60;;
20830;SDS011;10576;53.556;9.868;2023-02-01T05:43:34;1.80;;;0.68;;
20830;SDS011;10576;53.556;9.868;2023-02-01T05:46:00;3.10;;;0.60;;
20830;SDS011;10576;53.556;9.868;2023-02-01T05:48:26;2.00;;;0.60;;
20830;SDS011;10576;53.556;9.868;2023-02-01T05:50:52;1.83;;;0.60;;
20830;SDS011;10576;53.556;9.868;2023-02-01T05:53:18;1.90;;;0.50;;
20830;SDS011;10576;53.556;9.868;2023-02-01T05:55:44;2.42;;;0.90;;
20830;SDS011;10576;53.556;9.868;2023-02-01T05:58:10;1.17;;;0.47;;
20830;SDS011;10576;53.556;9.868;2023-02-01T06:00:37;2.65;;;0.88;;
20830;SDS011;10576;53.556;9.868;2023-02-01T06:03:03;1.48;;;0.70;;
20830;SDS011;10576;53.556;9.868;2023-02-01T06:05:28;2.53;;;0.77;;
20830;SDS011;10576;53.556;9.868;2023-02-01T06:07:55;1.37;;;0.67;;
20830;SDS011;10576;53.556;9.868;2023-02-01T06:10:20;2.15;;;0.80;;
20830;SDS011;10576;53.556;9.868;2023-02-01T06:12:46;2.07;;;0.97;;
20830;SDS011;10576;53.556;9.868;2023-02-01T06:15:12;2.78;;;0.80;;
20830;SDS011;10576;53.556;9.868;2023-02-01T06:17:43;3.47;;;1.02;;
20830;SDS011;10576;53.556;9.868;2023-02-01T06:20:10;2.58;;;1.13;;
20830;SDS011;10576;53.556;9.868;2023-02-01T06:22:38;4.78;;;1.35;;
20830;SDS011;10576;53.556;9.868;2023-02-01T06:25:04;7.20;;;1.48;;
20830;SDS011;10576;53.556;9.868;2023-02-01T06:27:32;5.45;;;1.42;;
20830;SDS011;10576;53.556;9.868;2023-02-01T06:29:58;8.23;;;1.80;;
20830;SDS011;10576;53.556;9.868;2023-02-01T06:32:24;7.15;;;1.50;;
20830;SDS011;10576;53.556;9.868;2023-02-01T06:34:50;7.18;;;1.52;;
20830;SDS011;10576;53.556;9.868;2023-02-01T06:37:20;7.20;;;1.88;;
20830;SDS011;10576;53.556;9.868;2023-02-01T06:39:47;10.27;;;1.90;;
20830;SDS011;10576;53.556;9.868;2023-02-01T06:42:14;5.93;;;1.67;;
20830;SDS011;10576;53.556;9.868;2023-02-01T06:44:40;6.07;;;1.90;;
20830;SDS011;10576;53.556;9.868;2023-02-01T06:47:06;6.78;;;1.70;;
20830;SDS011;10576;53.556;9.868;2023-02-01T06:49:32;7.90;;;1.90;;
20830;SDS011;10576;53.556;9.868;2023-02-01T06:51:58;7.47;;;1.88;;
20830;SDS011;10576;53.556;9.868;2023-02-01T06:54:28;11.30;;;2.27;;
20830;SDS011;10576;53.556;9.868;2023-02-01T06:56:54;12.52;;;2.55;;
20830;SDS011;10576;53.556;9.868;2023-02-01T06:59:20;11.23;;;2.40;;
20830;SDS011;10576;53.556;9.868;2023-02-01T07:01:46;14.10;;;2.65;;
20830;SDS011;10576;53.556;9.868;2023-02-01T07:04:12;11.82;;;2.67;;
20830;SDS011;10576;53.556;9.868;2023-02-01T07:06:40;11.97;;;2.77;;
20830;SDS011;10576;53.556;9.868;2023-02-01T07:09:07;16.65;;;3.10;;
20830;SDS011;10576;53.556;9.868;2023-02-01T07:11:32;12.80;;;2.83;;
20830;SDS011;10576;53.556;9.868;2023-02-01T07:13:58;16.50;;;3.40;;
20830;SDS011;10576;53.556;9.868;2023-02-01T07:16:25;17.07;;;3.77;;
20830;SDS011;10576;53.556;9.868;2023-02-01T07:18:51;21.88;;;3.40;;
20830;SDS011;10576;53.556;9.868;2023-02-01T07:21:18;17.30;;;3.53;;
20830;SDS011;10576;53.556;9.868;2023-02-01T07:23:44;24.65;;;4.22;;
20830;SDS011;10576;53.556;9.868;2023-02-01T07:26:11;24.00;;;4.57;;
20830;SDS011;10576;53.556;9.868;2023-02-01T07:28:38;23.25;;;4.85;;
20830;SDS011;10576;53.556;9.868;2023-02-01T07:31:08;23.25;;;4.97;;
20830;SDS011;10576;53.556;9.868;2023-02-01T07:33:35;23.27;;;5.03;;
20830;SDS011;10576;53.556;9.868;2023-02-01T07:36:02;22.33;;;4.10;;
20830;SDS011;10576;53.556;9.868;2023-02-01T07:38:29;25.17;;;4.70;;
20830;SDS011;10576;53.556;9.868;2023-02-01T07:40:59;30.90;;;5.25;;
20830;SDS011;10576;53.556;9.868;2023-02-01T07:43:29;25.05;;;5.07;;
20830;SDS011;10576;53.556;9.868;2023-02-01T07:45:55;24.27;;;4.78;;
20830;SDS011;10576;53.556;9.868;2023-02-01T07:48:22;28.02;;;5.07;;
20830;SDS011;10576;53.556;9.868;2023-02-01T07:50:48;25.52;;;4.63;;
20830;SDS011;10576;53.556;9.868;2023-02-01T07:53:25;28.02;;;4.53;;
20830;SDS011;10576;53.556;9.868;2023-02-01T07:55:51;24.40;;;5.00;;
20830;SDS011;10576;53.556;9.868;2023-02-01T07:58:17;26.90;;;5.05;;
20830;SDS011;10576;53.556;9.868;2023-02-01T08:00:42;22.38;;;4.43;;
20830;SDS011;10576;53.556;9.868;2023-02-01T08:03:26;23.80;;;4.43;;
20830;SDS011;10576;53.556;9.868;2023-02-01T08:05:55;24.25;;;5.20;;
20830;SDS011;10576;53.556;9.868;2023-02-01T08:08:21;22.85;;;4.78;;
20830;SDS011;10576;53.556;9.868;2023-02-01T08:10:47;27.20;;;5.05;;
20830;SDS011;10576;53.556;9.868;2023-02-01T08:13:13;23.90;;;4.43;;
20830;SDS011;10576;53.556;9.868;2023-02-01T08:15:38;26.60;;;4.80;;
20830;SDS011;10576;53.556;9.868;2023-02-01T08:18:04;24.70;;;4.90;;
20830;SDS011;10576;53.556;9.868;2023-02-01T08:20:30;21.75;;;4.63;;
20830;SDS011;10576;53.556;9.868;2023-02-01T08:22:55;27.38;;;4.50;;
20830;SDS011;10576;53.556;9.868;2023-02-01T08:25:22;26.00;;;5.10;;
20830;SDS011;10576;53.556;9.868;2023-02-01T08:27:48;25.13;;;4.88;;
20830;SDS011;10576;53.556;9.868;2023-02-01T08:30:14;23.17;;;5.20;;
20830;SDS011;10576;53.556;9.868;2023-02-01T08:32:40;25.98;;;4.90;;
20830;SDS011;10576;53.556;9.868;2023-02-01T08:35:06;26.33;;;5.20;;
20830;SDS011;10576;53.556;9.868;2023-02-01T08:37:33;22.63;;;4.55;;
20830;SDS011;10576;53.556;9.868;2023-02-01T08:39:58;18.90;;;4.40;;
20830;SDS011;10576;53.556;9.868;2023-02-01T08:42:24;28.73;;;5.23;;
20830;SDS011;10576;53.556;9.868;2023-02-01T08:45:09;24.83;;;4.97;;
20830;SDS011;10576;53.556;9.868;2023-02-01T08:47:35;25.00;;;5.25;;
20830;SDS011;10576;53.556;9.868;2023-02-01T08:50:00;24.10;;;4.70;;
20830;SDS011;10576;53.556;9.868;2023-02-01T08:52:26;25.75;;;4.22;;
20830;SDS011;10576;53.556;9.868;2023-02-01T08:54:52;25.42;;;5.40;;
20830;SDS011;10576;53.556;9.868;2023-02-01T08:57:17;20.60;;;4.60;;
20830;SDS011;10576;53.556;9.868;2023-02-01T08:59:43;20.03;;;4.13;;
20830;SDS011;10576;53.556;9.868;2023-02-01T09:02:15;21.97;;;4.30;;
20830;SDS011;10576;53.556;9.868;2023-02-01T09:04:42;18.10;;;3.75;;
20830;SDS011;10576;53.556;9.868;2023-02-01T09:07:08;22.08;;;4.60;;
20830;SDS011;10576;53.556;9.868;2023-02-01T09:09:34;18.48;;;3.70;;
20830;SDS011;10576;53.556;9.868;2023-02-01T09:12:00;20.55;;;4.15;;
20830;SDS011;10576;53.556;9.868;2023-02-01T09:14:27;21.52;;;4.28;;
20830;SDS011;10576;53.556;9.868;2023-02-01T09:16:52;19.98;;;4.20;;
20830;SDS011;10576;53.556;9.868;2023-02-01T09:19:18;21.40;;;4.37;;
20830;SDS011;10576;53.556;9.868;2023-02-01T09:21:44;17.60;;;3.73;;
20830;SDS011;10576;53.556;9.868;2023-02-01T09:24:10;20.10;;;4.25;;
20830;SDS011;10576;53.556;9.868;2023-02-01T09:26:36;19.43;;;4.03;;
20830;SDS011;10576;53.556;9.868;2023-02-01T09:29:02;17.00;;;4.50;;
20830;SDS011;10576;53.556;9.868;2023-02-01T09:31:29;22.05;;;4.70;;
20830;SDS011;10576;53.556;9.868;2023-02-01T09:33:55;24.10;;;4.57;;
20830;SDS011;10576;53.556;9.868;2023-02-01T09:36:21;24.40;;;4.75;;
20830;SDS011;10576;53.556;9.868;2023-02-01T09:38:48;21.83;;;4.30;;
20830;SDS011;10576;53.556;9.868;2023-02-01T09:46:31;22.03;;;4.37;;
20830;SDS011;10576;53.556;9.868;2023-02-01T09:49:00;19.60;;;4.50;;
20830;SDS011;10576;53.556;9.868;2023-02-01T09:51:41;21.08;;;4.35;;
20830;SDS011;10576;53.556;9.868;2023-02-01T09:54:12;26.20;;;4.55;;
20830;SDS011;10576;53.556;9.868;2023-02-01T09:56:47;26.38;;;4.47;;
20830;SDS011;10576;53.556;9.868;2023-02-01T09:59:23;19.27;;;3.78;;
20830;SDS011;10576;53.556;9.868;2023-02-01T10:01:57;19.20;;;4.50;;
20830;SDS011;10576;53.556;9.868;2023-02-01T10:04:24;17.63;;;3.53;;
20830;SDS011;10576;53.556;9.868;2023-02-01T10:20:56;18.20;;;3.80;;
20830;SDS011;10576;53.556;9.868;2023-02-01T10:28:50;21.13;;;4.13;;
20830;SDS011;10576;53.556;9.868;2023-02-01T10:31:18;21.20;;;4.07;;
20830;SDS011;10576;53.556;9.868;2023-02-01T10:33:47;16.58;;;3.42;;
20830;SDS011;10576;53.556;9.868;2023-02-01T10:39:01;17.10;;;3.75;;
20830;SDS011;10576;53.556;9.868;2023-02-01T10:41:35;18.27;;;4.20;;
20830;SDS011;10576;53.556;9.868;2023-02-01T10:44:05;19.13;;;4.22;;
20830;SDS011;10576;53.556;9.868;2023-02-01T10:46:36;22.00;;;4.20;;
20830;SDS011;10576;53.556;9.868;2023-02-01T10:49:03;22.03;;;4.20;;
20830;SDS011;10576;53.556;9.868;2023-02-01T10:54:38;18.95;;;3.53;;
20830;SDS011;10576;53.556;9.868;2023-02-01T10:57:09;20.10;;;4.30;;
20830;SDS011;10576;53.556;9.868;2023-02-01T10:59:45;17.52;;;3.58;;
20830;SDS011;10576;53.556;9.868;2023-02-01T11:02:16;16.23;;;3.50;;
20830;SDS011;10576;53.556;9.868;2023-02-01T11:05:07;19.37;;;3.63;;
20830;SDS011;10576;53.556;9.868;2023-02-01T11:07:36;16.20;;;3.40;;
20830;SDS011;10576;53.556;9.868;2023-02-01T11:10:04;15.52;;;3.80;;
20830;SDS011;10576;53.556;9.868;2023-02-01T11:12:31;15.80;;;3.50;;
20830;SDS011;10576;53.556;9.868;2023-02-01T11:17:45;14.40;;;3.70;;
20830;SDS011;10576;53.556;9.868;2023-02-01T11:20:19;18.70;;;4.22;;
20830;SDS011;10576;53.556;9.868;2023-02-01T11:22:54;20.25;;;4.40;;
20830;SDS011;10576;53.556;9.868;2023-02-01T11:25:21;20.95;;;4.25;;
20830;SDS011;10576;53.556;9.868;2023-02-01T11:27:49;18.30;;;3.85;;
20830;SDS011;10576;53.556;9.868;2023-02-01T11:30:18;15.85;;;3.80;;
20830;SDS011;10576;53.556;9.868;2023-02-01T11:32:50;21.95;;;4.05;;
20830;SDS011;10576;53.556;9.868;2023-02-01T11:35:17;17.98;;;3.97;;
20830;SDS011;10576;53.556;9.868;2023-02-01T11:37:48;16.80;;;3.70;;
20830;SDS011;10576;53.556;9.868;2023-02-01T11:46:00;18.83;;;3.80;;
20830;SDS011;10576;53.556;9.868;2023-02-01T11:48:28;21.67;;;3.65;;
20830;SDS011;10576;53.556;9.868;2023-02-01T11:54:02;12.15;;;3.10;;
20830;SDS011;10576;53.556;9.868;2023-02-01T12:08:04;13.75;;;2.70;;
20830;SDS011;10576;53.556;9.868;2023-02-01T12:10:42;10.95;;;3.38;;
20830;SDS011;10576;53.556;9.868;2023-02-01T12:13:36;12.32;;;2.90;;
20830;SDS011;10576;53.556;9.868;2023-02-01T12:16:22;15.38;;;3.28;;
20830;SDS011;10576;53.556;9.868;2023-02-01T12:22:18;9.52;;;2.75;;
20830;SDS011;10576;53.556;9.868;2023-02-01T12:25:57;8.00;;;2.85;;
20830;SDS011;10576;53.556;9.868;2023-02-01T12:28:10;8.27;;;2.15;;
20830;SDS011;10576;53.556;9.868;2023-02-01T12:41:10;4.18;;;1.10;;
20830;SDS011;10576;53.556;9.868;2023-02-01T12:46:17;2.40;;;1.17;;
20830;SDS011;10576;53.556;9.868;2023-02-01T12:49:00;2.53;;;0.80;;
20830;SDS011;10576;53.556;9.868;2023-02-01T12:51:39;2.13;;;0.83;;
20830;SDS011;10576;53.556;9.868;2023-02-01T12:56:43;1.33;;;0.80;;
20830;SDS011;10576;53.556;9.868;2023-02-01T13:07:14;1.40;;;0.70;;
20830;SDS011;10576;53.556;9.868;2023-02-01T13:09:45;0.73;;;0.57;;
20830;SDS011;10576;53.556;9.868;2023-02-01T13:12:24;2.72;;;0.70;;
20830;SDS011;10576;53.556;9.868;2023-02-01T13:15:03;1.20;;;0.80;;
20830;SDS011;10576;53.556;9.868;2023-02-01T13:17:41;1.60;;;0.80;;
20830;SDS011;10576;53.556;9.868;2023-02-01T13:22:58;1.05;;;0.70;;
20830;SDS011;10576;53.556;9.868;2023-02-01T13:27:57;0.93;;;0.60;;
20830;SDS011;10576;53.556;9.868;2023-02-01T13:30:42;2.47;;;0.77;;
20830;SDS011;10576;53.556;9.868;2023-02-01T13:33:32;0.95;;;0.70;;
20830;SDS011;10576;53.556;9.868;2023-02-01T13:41:20;1.20;;;0.75;;
20830;SDS011;10576;53.556;9.868;2023-02-01T13:43:52;1.50;;;0.70;;
20830;SDS011;10576;53.556;9.868;2023-02-01T13:46:18;2.20;;;0.70;;
20830;SDS011;10576;53.556;9.868;2023-02-01T13:48:52;1.53;;;0.70;;
20830;SDS011;10576;53.556;9.868;2023-02-01T13:51:37;2.55;;;0.80;;
20830;SDS011;10576;53.556;9.868;2023-02-01T13:54:21;2.72;;;0.93;;
20830;SDS011;10576;53.556;9.868;2023-02-01T13:56:49;2.22;;;0.85;;
20830;SDS011;10576;53.556;9.868;2023-02-01T14:02:27;2.53;;;1.02;;
20830;SDS011;10576;53.556;9.868;2023-02-01T14:18:54;6.53;;;1.50;;
20830;SDS011;10576;53.556;9.868;2023-02-01T14:26:40;8.60;;;2.15;;
20830;SDS011;10576;53.556;9.868;2023-02-01T14:34:16;11.18;;;1.80;;
20830;SDS011;10576;53.556;9.868;2023-02-01T14:36:44;6.85;;;1.77;;
20830;SDS011;10576;53.556;9.868;2023-02-01T14:39:21;5.73;;;1.83;;
20830;SDS011;10576;53.556;9.868;2023-02-01T14:41:51;6.50;;;1.60;;
20830;SDS011;10576;53.556;9.868;2023-02-01T14:44:27;8.80;;;1.60;;
20830;SDS011;10576;53.556;9.868;2023-02-01T14:47:03;7.50;;;1.90;;
20830;SDS011;10576;53.556;9.868;2023-02-01T14:49:33;9.73;;;2.00;;
20830;SDS011;10576;53.556;9.868;2023-02-01T14:52:16;8.73;;;2.40;;
20830;SDS011;10576;53.556;9.868;2023-02-01T14:54:46;7.68;;;2.10;;
20830;SDS011;10576;53.556;9.868;2023-02-01T14:57:15;10.50;;;2.20;;
20830;SDS011;10576;53.556;9.868;2023-02-01T14:59:42;9.68;;;2.20;;
20830;SDS011;10576;53.556;9.868;2023-02-01T15:02:17;12.10;;;2.55;;
20830;SDS011;10576;53.556;9.868;2023-02-01T15:04:50;13.27;;;3.13;;
20830;SDS011;10576;53.556;9.868;2023-02-01T15:07:19;13.20;;;3.58;;
20830;SDS011;10576;53.556;9.868;2023-02-01T15:09:45;15.27;;;3.63;;
20830;SDS011;10576;53.556;9.868;2023-02-01T15:14:40;9.23;;;2.63;;
20830;SDS011;10576;53.556;9.868;2023-02-01T15:17:24;11.32;;;2.50;;
20830;SDS011;10576;53.556;9.868;2023-02-01T15:19:53;11.63;;;2.58;;
20830;SDS011;10576;53.556;9.868;2023-02-01T15:22:24;13.90;;;2.33;;
20830;SDS011;10576;53.556;9.868;2023-02-01T15:24:53;7.32;;;1.83;;
20830;SDS011;10576;53.556;9.868;2023-02-01T15:27:20;9.80;;;2.10;;
20830;SDS011;10576;53.556;9.868;2023-02-01T15:29:46;12.50;;;2.42;;
20830;SDS011;10576;53.556;9.868;2023-02-01T15:32:32;9.15;;;1.85;;
20830;SDS011;10576;53.556;9.868;2023-02-01T15:35:03;9.37;;;1.80;;
20830;SDS011;10576;53.556;9.868;2023-02-01T15:37:29;7.90;;;2.17;;
20830;SDS011;10576;53.556;9.868;2023-02-01T15:40:29;10.18;;;2.10;;
20830;SDS011;10576;53.556;9.868;2023-02-01T15:42:52;9.65;;;2.30;;
20830;SDS011;10576;53.556;9.868;2023-02-01T15:45:21;11.20;;;2.40;;
20830;SDS011;10576;53.556;9.868;2023-02-01T15:47:47;11.52;;;3.00;;
20830;SDS011;10576;53.556;9.868;2023-02-01T15:50:16;10.48;;;2.65;;
20830;SDS011;10576;53.556;9.868;2023-02-01T15:52:45;14.48;;;2.78;;
20830;SDS011;10576;53.556;9.868;2023-02-01T15:55:20;11.60;;;2.60;;
20830;SDS011;10576;53.556;9.868;2023-02-01T15:57:49;10.60;;;2.57;;
20830;SDS011;10576;53.556;9.868;2023-02-01T16:02:59;11.80;;;2.75;;
20830;SDS011;10576;53.556;9.868;2023-02-01T16:08:25;12.35;;;3.13;;
20830;SDS011;10576;53.556;9.868;2023-02-01T16:10:52;15.27;;;2.88;;
20830;SDS011;10576;53.556;9.868;2023-02-01T16:13:18;18.42;;;3.35;;
20830;SDS011;10576;53.556;9.868;2023-02-01T16:15:45;13.63;;;3.20;;
20830;SDS011;10576;53.556;9.868;2023-02-01T16:18:12;14.25;;;2.70;;
20830;SDS011;10576;53.556;9.868;2023-02-01T16:20:39;12.45;;;3.30;;
20830;SDS011;10576;53.556;9.868;2023-02-01T16:23:06;12.05;;;2.78;;
20830;SDS011;10576;53.556;9.868;2023-02-01T16:25:32;18.08;;;3.00;;
20830;SDS011;10576;53.556;9.868;2023-02-01T16:27:58;15.27;;;3.40;;
20830;SDS011;10576;53.556;9.868;2023-02-01T16:30:24;19.00;;;3.35;;
20830;SDS011;10576;53.556;9.868;2023-02-01T16:32:54;19.55;;;3.72;;
20830;SDS011;10576;53.556;9.868;2023-02-01T16:35:22;15.30;;;3.40;;
20830;SDS011;10576;53.556;9.868;2023-02-01T16:37:49;23.27;;;4.05;;
20830;SDS011;10576;53.556;9.868;2023-02-01T16:40:15;21.38;;;4.10;;
20830;SDS011;10576;53.556;9.868;2023-02-01T16:42:42;21.35;;;4.25;;
20830;SDS011;10576;53.556;9.868;2023-02-01T16:45:08;17.95;;;3.50;;
20830;SDS011;10576;53.556;9.868;2023-02-01T16:47:36;20.52;;;4.07;;
20830;SDS011;10576;53.556;9.868;2023-02-01T16:50:04;15.48;;;4.07;;
20830;SDS011;10576;53.556;9.868;2023-02-01T16:52:30;20.80;;;4.63;;
20830;SDS011;10576;53.556;9.868;2023-02-01T16:54:55;23.97;;;4.90;;
20830;SDS011;10576;53.556;9.868;2023-02-01T16:57:21;25.55;;;4.95;;
20830;SDS011;10576;53.556;9.868;2023-02-01T16:59:48;27.17;;;5.07;;
20830;SDS011;10576;53.556;9.868;2023-02-01T17:02:16;24.92;;;4.50;;
20830;SDS011;10576;53.556;9.868;2023-02-01T17:04:47;26.02;;;5.13;;
20830;SDS011;10576;53.556;9.868;2023-02-01T17:07:16;25.20;;;5.45;;
20830;SDS011;10576;53.556;9.868;2023-02-01T17:09:43;26.55;;;4.97;;
20830;SDS011;10576;53.556;9.868;2023-02-01T17:12:28;30.15;;;5.07;;
20830;SDS011;10576;53.556;9.868;2023-02-01T17:14:55;22.73;;;5.63;;
20830;SDS011;10576;53.556;9.868;2023-02-01T17:17:22;27.00;;;5.10;;
20830;SDS011;10576;53.556;9.868;2023-02-01T17:19:52;27.38;;;5.57;;
20830;SDS011;10576;53.556;9.868;2023-02-01T17:22:21;32.50;;;5.07;;
20830;SDS011;10576;53.556;9.868;2023-02-01T17:24:47;27.75;;;5.38;;
20830;SDS011;10576;53.556;9.868;2023-02-01T17:27:13;26.35;;;4.88;;
20830;SDS011;10576;53.556;9.868;2023-02-01T17:29:39;26.63;;;4.80;;